Time;durP1;ratioP1;P1;durP2;ratioP2;P2;SDS_P1;SDS_P2;PMS_P1;PMS_P2;Temp;Humidity;BMP_temperature;BMP_pressure;BME280_temperature;BME280_humidity;BME280_pressure;Samples;Min_cycle;Max_cycle;Signal;HPM_P1;HPM_P2
2022/05/20 00:01:11;;;;;;;0.00;0.00;;;21.30;71.10;;;;;;4219084;28;20728;-66
2022/05/20 00:03:38;;;;;;;0.00;0.00;;;21.40;71.40;;;;;;4190897;28;20052;-67
2022/05/20 00:06:01;;;;;;;0.00;0.00;;;21.40;70.70;;;;;;4218646;28;20043;-67
2022/05/20 00:08:23;;;;;;;0.00;0.00;;;21.40;70.50;;;;;;4204642;28;20071;-68
2022/05/20 00:10:53;;;;;;;0.00;0.00;;;21.30;70.30;;;;;;4217943;28;20368;-67
2022/05/20 00:13:18;;;;;;;0.00;0.00;;;21.30;70.50;;;;;;4233118;28;20047;-67
2022/05/20 00:15:43;;;;;;;0.00;0.00;;;21.30;70.40;;;;;;4218714;28;20385;-70
2022/05/20 00:18:10;;;;;;;0.00;0.00;;;21.30;70.30;;;;;;4177239;28;20451;-67
2022/05/20 00:20:37;;;;;;;0.00;0.00;;;21.40;70.10;;;;;;4133838;28;20067;-68
2022/05/20 00:23:04;;;;;;;0.00;0.00;;;21.30;70.00;;;;;;4147415;28;20087;-68
2022/05/20 00:25:45;;;;;;;0.00;0.00;;;21.40;70.10;;;;;;4104173;28;20112;-67
2022/05/20 00:28:11;;;;;;;0.00;0.00;;;21.30;69.70;;;;;;4131578;28;20069;-67
2022/05/20 00:30:40;;;;;;;0.00;0.00;;;21.40;69.60;;;;;;4143628;28;20058;-68
2022/05/20 00:33:05;;;;;;;0.00;0.00;;;21.50;69.60;;;;;;4131312;28;20056;-68
2022/05/20 00:35:27;;;;;;;0.00;0.00;;;21.50;69.60;;;;;;4117372;28;20417;-66
2022/05/20 00:37:51;;;;;;;0.00;0.00;;;21.60;69.50;;;;;;4131753;28;20085;-66
2022/05/20 00:40:23;;;;;;;0.00;0.00;;;21.60;70.00;;;;;;4117084;28;20062;-67
2022/05/20 00:42:46;;;;;;;0.00;0.00;;;21.60;69.70;;;;;;4144019;28;20125;-68
2022/05/20 00:45:12;;;;;;;0.00;0.00;;;21.60;69.60;;;;;;4117436;28;20050;-67
2022/05/20 00:47:34;;;;;;;0.00;0.00;;;21.60;69.60;;;;;;4117140;28;20055;-67
2022/05/20 00:50:00;;;;;;;0.00;0.00;;;21.60;69.60;;;;;;4103470;28;20051;-67
2022/05/20 00:52:31;;;;;;;0.00;0.00;;;21.50;69.60;;;;;;4130191;28;20431;-68
2022/05/20 00:54:57;;;;;;;0.00;0.00;;;21.60;70.00;;;;;;4116923;28;20050;-69
2022/05/20 00:57:40;;;;;;;0.00;0.00;;;21.60;70.00;;;;;;4130846;28;20369;-70
2022/05/20 01:00:10;;;;;;;0.00;0.00;;;21.60;70.10;;;;;;4130261;28;20421;-69
2022/05/20 01:02:39;;;;;;;0.00;0.00;;;21.70;70.20;;;;;;4146799;28;20074;-66
2022/05/20 01:05:06;;;;;;;0.00;0.00;;;21.60;70.00;;;;;;4132700;28;20141;-67
2022/05/20 01:07:39;;;;;;;0.00;0.00;;;21.60;69.90;;;;;;4147210;28;20357;-70
2022/05/20 01:10:08;;;;;;;0.00;0.00;;;21.60;69.50;;;;;;4119521;28;20445;-67
2022/05/20 01:12:31;;;;;;;0.00;0.00;;;21.50;69.30;;;;;;4132573;28;20132;-68
2022/05/20 01:14:53;;;;;;;0.00;0.00;;;21.40;69.60;;;;;;4146692;28;20046;-68
2022/05/20 01:17:19;;;;;;;0.00;0.00;;;21.40;69.80;;;;;;4119452;28;20062;-67
2022/05/20 01:19:50;;;;;;;0.00;0.00;;;21.40;69.80;;;;;;4146867;28;20115;-68
2022/05/20 01:23:02;;;;;;;0.00;0.00;;;21.50;69.70;;;;;;4132648;28;20058;-69
2022/05/20 01:25:33;;;;;;;0.00;0.00;;;21.50;70.00;;;;;;4116519;28;20101;-67
2022/05/20 01:27:58;;;;;;;0.00;0.00;;;21.50;70.30;;;;;;4130431;28;20112;-67
2022/05/20 01:30:24;;;;;;;0.00;0.00;;;21.50;70.40;;;;;;4130260;28;20058;-68
2022/05/20 01:32:49;;;;;;;0.00;0.00;;;21.40;70.50;;;;;;4116156;28;20078;-67
2022/05/20 01:35:38;;;;;;;0.00;0.00;;;21.40;70.20;;;;;;4102789;28;20051;-66
2022/05/20 01:38:01;;;;;;;0.00;0.00;;;21.30;70.00;;;;;;4103147;28;20213;-66
2022/05/20 01:40:24;;;;;;;0.00;0.00;;;21.10;70.20;;;;;;4116233;28;20638;-69
2022/05/20 01:43:03;;;;;;;0.00;0.00;;;21.10;70.40;;;;;;4116704;28;20076;-67
2022/05/20 01:45:43;;;;;;;0.00;0.00;;;21.10;70.40;;;;;;4116638;28;20469;-68
2022/05/20 01:48:35;;;;;;;0.00;0.00;;;21.00;70.60;;;;;;4116296;28;20055;-66
2022/05/20 01:51:02;;;;;;;0.00;0.00;;;21.00;70.80;;;;;;4113222;28;20058;-67
2022/05/20 01:53:33;;;;;;;0.00;0.00;;;21.10;71.20;;;;;;4113343;28;20137;-67
2022/05/20 01:56:01;;;;;;;0.00;0.00;;;21.10;71.20;;;;;;4112877;28;20049;-67
2022/05/20 01:58:35;;;;;;;0.00;0.00;;;21.10;71.10;;;;;;4099975;28;20108;-66
2022/05/20 02:01:05;;;;;;;0.00;0.00;;;21.10;71.40;;;;;;4086704;28;20060;-65
2022/05/20 02:03:36;;;;;;;0.00;0.00;;;21.10;71.70;;;;;;4100037;28;20433;-66
2022/05/20 02:05:57;;;;;;;0.00;0.00;;;21.10;71.60;;;;;;4100087;28;20051;-68
2022/05/20 02:08:30;;;;;;;0.00;0.00;;;21.10;71.40;;;;;;4113255;28;20153;-68
2022/05/20 02:11:06;;;;;;;0.00;0.00;;;21.00;71.30;;;;;;4113296;28;20531;-66
2022/05/20 02:13:31;;;;;;;0.00;0.00;;;21.00;71.70;;;;;;4099887;28;20448;-68
2022/05/20 02:16:03;;;;;;;0.00;0.00;;;20.90;71.70;;;;;;4086631;28;20554;-68
2022/05/20 02:18:33;;;;;;;0.00;0.00;;;20.90;72.30;;;;;;4099893;28;20101;-67
2022/05/20 02:21:03;;;;;;;0.00;0.00;;;20.90;72.30;;;;;;4086702;28;20537;-67
2022/05/20 02:23:32;;;;;;;0.00;0.00;;;21.00;72.30;;;;;;4114385;28;20084;-67
2022/05/20 02:26:04;;;;;;;0.00;0.00;;;20.90;72.30;;;;;;4185717;28;20060;-68
2022/05/20 02:28:38;;;;;;;0.00;0.00;;;21.00;72.30;;;;;;4213970;28;20378;-71
2022/05/20 02:31:04;;;;;;;0.00;0.00;;;21.00;72.00;;;;;;4199691;28;20417;-66
2022/05/20 02:33:30;;;;;;;0.00;0.00;;;20.90;72.60;;;;;;4199475;28;20051;-68
2022/05/20 02:36:00;;;;;;;0.00;0.00;;;20.90;72.40;;;;;;4199740;28;20056;-66
2022/05/20 02:38:23;;;;;;;0.00;0.00;;;20.80;72.30;;;;;;4213545;28;20059;-66
2022/05/20 02:40:52;;;;;;;0.00;0.00;;;20.80;72.00;;;;;;4199514;28;20433;-70
2022/05/20 02:43:14;;;;;;;0.00;0.00;;;20.70;71.20;;;;;;4199460;28;20056;-66
2022/05/20 02:45:37;;;;;;;0.00;0.00;;;20.60;71.40;;;;;;4227748;28;20108;-67
2022/05/20 02:47:59;;;;;;;0.00;0.00;;;20.60;71.20;;;;;;4213498;28;20040;-68
2022/05/20 02:50:21;;;;;;;0.00;0.00;;;20.60;71.00;;;;;;4199093;28;20121;-68
2022/05/20 02:52:46;;;;;;;0.00;0.00;;;20.50;70.80;;;;;;4213156;28;20177;-68
2022/05/20 02:55:11;;;;;;;0.00;0.00;;;20.50;70.90;;;;;;4213463;28;20039;-67
2022/05/20 02:57:36;;;;;;;0.00;0.00;;;20.40;70.90;;;;;;4185385;28;20048;-69
2022/05/20 03:05:21;;;;;;;0.00;0.00;;;20.20;71.60;;;;;;4227791;28;20089;-68
2022/05/20 03:07:44;;;;;;;0.00;0.00;;;20.40;71.50;;;;;;4212486;28;20516;-67
2022/05/20 03:10:07;;;;;;;0.00;0.00;;;20.40;71.50;;;;;;4227363;28;20055;-67
2022/05/20 03:12:29;;;;;;;0.00;0.00;;;20.50;72.00;;;;;;4213171;28;20123;-67
2022/05/20 03:14:53;;;;;;;0.00;0.00;;;20.50;71.70;;;;;;4213079;28;20469;-66
2022/05/20 03:17:15;;;;;;;0.00;0.00;;;20.50;71.30;;;;;;4199265;28;20477;-66
2022/05/20 03:19:38;;;;;;;0.00;0.00;;;20.50;71.10;;;;;;4199259;28;20422;-68
2022/05/20 03:22:04;;;;;;;0.00;0.00;;;20.40;71.10;;;;;;4227466;28;20055;-66
2022/05/20 03:24:28;;;;;;;0.00;0.00;;;20.40;71.00;;;;;;4199316;28;20057;-70
2022/05/20 03:26:49;;;;;;;0.00;0.00;;;20.40;71.30;;;;;;4185725;28;20049;-67
2022/05/20 03:29:14;;;;;;;0.00;0.00;;;20.40;71.50;;;;;;4227206;28;20652;-68
2022/05/20 03:31:38;;;;;;;0.00;0.00;;;20.50;71.80;;;;;;4212883;28;20058;-68
2022/05/20 03:34:05;;;;;;;0.00;0.00;;;20.50;72.00;;;;;;4213147;28;20037;-66
2022/05/20 03:36:27;;;;;;;0.00;0.00;;;20.50;71.90;;;;;;4213104;28;20637;-66
2022/05/20 03:38:51;;;;;;;0.00;0.00;;;20.50;72.00;;;;;;4213204;28;20048;-69
2022/05/20 03:41:14;;;;;;;0.00;0.00;;;20.50;72.00;;;;;;4212861;28;20049;-67
2022/05/20 03:43:37;;;;;;;0.00;0.00;;;20.50;72.00;;;;;;4184817;28;20467;-70
2022/05/20 03:46:00;;;;;;;0.00;0.00;;;20.50;72.20;;;;;;4227208;28;20048;-66
2022/05/20 03:48:25;;;;;;;0.00;0.00;;;20.40;71.90;;;;;;4185205;28;20052;-67
2022/05/20 03:50:47;;;;;;;0.00;0.00;;;20.40;71.90;;;;;;4241132;28;20781;-68
2022/05/20 03:53:10;;;;;;;0.00;0.00;;;20.40;72.30;;;;;;4198713;28;20057;-66
2022/05/20 03:55:34;;;;;;;0.00;0.00;;;20.40;72.20;;;;;;4198648;28;20059;-70
2022/05/20 03:57:56;;;;;;;0.00;0.00;;;20.40;72.40;;;;;;4213140;28;20084;-66
2022/05/20 04:00:18;;;;;;;0.00;0.00;;;20.40;72.30;;;;;;4213342;28;20075;-67
2022/05/20 04:02:40;;;;;;;0.00;0.00;;;20.30;71.90;;;;;;4213390;28;20387;-68
2022/05/20 04:05:09;;;;;;;0.00;0.00;;;20.30;71.40;;;;;;4213353;28;20052;-67
2022/05/20 04:07:32;;;;;;;0.00;0.00;;;20.20;71.30;;;;;;4213532;28;20052;-67
2022/05/20 04:10:00;;;;;;;0.00;0.00;;;20.10;71.60;;;;;;4199230;28;20094;-68
2022/05/20 04:12:26;;;;;;;0.00;0.00;;;20.10;71.30;;;;;;4198802;28;20052;-67
2022/05/20 04:14:48;;;;;;;0.00;0.00;;;20.00;71.40;;;;;;4185243;28;20131;-69
2022/05/20 04:17:10;;;;;;;0.00;0.00;;;20.00;71.70;;;;;;4198906;28;20152;-66
2022/05/20 04:19:34;;;;;;;0.00;0.00;;;20.00;72.00;;;;;;4216412;28;20397;-67
2022/05/20 04:22:03;;;;;;;0.00;0.00;;;20.10;71.70;;;;;;4230865;27;20492;-68
2022/05/20 04:24:33;;;;;;;0.00;0.00;;;20.20;72.10;;;;;;4150954;28;20097;-68
2022/05/20 04:26:55;;;;;;;0.00;0.00;;;20.30;71.30;;;;;;4202088;28;20052;-69
2022/05/20 04:29:21;;;;;;;0.00;0.00;;;20.30;71.30;;;;;;4201920;28;20115;-67
2022/05/20 04:31:48;;;;;;;0.00;0.00;;;20.30;71.70;;;;;;4202239;28;20384;-68
2022/05/20 04:34:10;;;;;;;0.00;0.00;;;20.40;71.50;;;;;;4202104;28;20127;-67
2022/05/20 04:36:37;;;;;;;0.00;0.00;;;20.40;71.70;;;;;;4188415;28;20060;-68
2022/05/20 04:38:59;;;;;;;0.00;0.00;;;20.40;71.60;;;;;;4201912;28;20049;-66
2022/05/20 04:46:59;;;;;;;0.00;0.00;;;20.50;72.20;;;;;;4201543;28;20101;-68
2022/05/20 04:49:22;;;;;;;0.00;0.00;;;20.50;71.80;;;;;;4174164;28;20096;-68
2022/05/20 04:51:44;;;;;;;0.00;0.00;;;20.50;71.80;;;;;;4201261;28;20043;-67
2022/05/20 04:56:47;;;;;;;;;;;20.50;71.40;;;;;;4188146;28;20496;-67
2022/05/20 04:59:09;;;;;;;0.00;0.00;;;20.50;71.20;;;;;;4187795;28;19929;-67
2022/05/20 05:01:35;;;;;;;0.00;0.00;;;20.60;71.30;;;;;;4187427;28;20086;-69
2022/05/20 05:03:59;;;;;;;0.00;0.00;;;20.70;70.90;;;;;;4187643;28;20063;-67
2022/05/20 05:06:23;;;;;;;0.00;0.00;;;20.70;70.60;;;;;;4187603;28;20395;-68
2022/05/20 05:08:46;;;;;;;0.00;0.00;;;20.80;70.50;;;;;;4201538;28;20053;-66
2022/05/20 05:11:08;;;;;;;0.00;0.00;;;20.80;70.20;;;;;;4201211;28;20056;-67
2022/05/20 05:13:32;;;;;;;0.00;0.00;;;20.80;69.60;;;;;;4187116;28;20041;-68
2022/05/20 05:15:54;;;;;;;0.00;0.00;;;20.90;70.00;;;;;;4160212;28;20462;-67
2022/05/20 05:18:22;;;;;;;0.00;0.00;;;21.00;70.10;;;;;;4173788;28;20045;-66
2022/05/20 05:20:50;;;;;;;0.00;0.00;;;21.10;70.10;;;;;;4201212;28;20445;-68
2022/05/20 05:23:16;;;;;;;0.00;0.00;;;21.20;69.60;;;;;;4201347;28;20420;-66
2022/05/20 05:25:40;;;;;;;0.00;0.00;;;21.30;69.30;;;;;;4229338;28;20051;-70
2022/05/20 05:28:06;;;;;;;0.00;0.00;;;21.30;69.30;;;;;;4186907;28;20123;-66
2022/05/20 05:30:31;;;;;;;0.00;0.00;;;21.30;69.20;;;;;;4186199;28;20499;-67
2022/05/20 05:32:54;;;;;;;0.00;0.00;;;21.30;68.90;;;;;;4186691;28;20049;-67
2022/05/20 05:35:20;;;;;;;0.00;0.00;;;21.40;68.50;;;;;;4200902;28;20041;-68
2022/05/20 05:37:42;;;;;;;0.00;0.00;;;21.40;68.40;;;;;;4200790;28;20047;-65
2022/05/20 05:40:09;;;;;;;0.00;0.00;;;21.40;68.30;;;;;;4187012;28;20048;-70
2022/05/20 05:42:32;;;;;;;0.00;0.00;;;21.40;68.10;;;;;;4173046;28;20053;-65
2022/05/20 05:44:55;;;;;;;0.00;0.00;;;21.30;68.20;;;;;;4200698;28;20052;-67
2022/05/20 05:47:20;;;;;;;0.00;0.00;;;21.30;68.50;;;;;;4200761;28;20161;-68
2022/05/20 05:49:44;;;;;;;0.00;0.00;;;21.40;68.40;;;;;;4200836;28;20414;-66
2022/05/20 05:52:06;;;;;;;0.00;0.00;;;21.40;68.10;;;;;;4214928;28;20463;-66
2022/05/20 05:54:32;;;;;;;0.00;0.00;;;21.50;68.20;;;;;;4214859;28;20066;-69
2022/05/20 05:57:00;;;;;;;0.00;0.00;;;21.50;68.10;;;;;;4214927;28;20068;-67
2022/05/20 05:59:22;;;;;;;0.00;0.00;;;21.50;68.60;;;;;;4214862;28;20067;-69
2022/05/20 06:01:48;;;;;;;0.00;0.00;;;21.50;68.10;;;;;;4214542;28;20054;-68
2022/05/20 06:04:10;;;;;;;0.00;0.00;;;21.60;68.10;;;;;;4214535;28;20051;-69
2022/05/20 06:06:32;;;;;;;0.00;0.00;;;21.70;68.20;;;;;;4242986;27;20058;-68
2022/05/20 06:08:55;;;;;;;0.00;0.00;;;21.70;67.60;;;;;;4214522;28;20575;-71
2022/05/20 06:11:20;;;;;;;0.00;0.00;;;21.70;67.50;;;;;;4214991;28;20106;-67
2022/05/20 06:13:45;;;;;;;0.00;0.00;;;21.80;67.60;;;;;;4200299;28;20538;-68
2022/05/20 06:16:07;;;;;;;0.00;0.00;;;21.80;67.20;;;;;;4214529;28;20073;-69
2022/05/20 06:18:35;;;;;;;0.00;0.00;;;21.80;67.00;;;;;;4200326;28;20112;-68
2022/05/20 06:20:57;;;;;;;0.00;0.00;;;21.80;67.10;;;;;;4200399;28;20078;-68
2022/05/20 06:23:22;;;;;;;0.00;0.00;;;21.90;66.80;;;;;;4206320;28;20567;-69
2022/05/20 06:25:44;;;;;;;0.00;0.00;;;22.00;66.60;;;;;;4116408;28;20450;-67
2022/05/20 06:28:26;;;;;;;0.00;0.00;;;22.10;67.00;;;;;;4129678;28;20058;-67
2022/05/20 06:30:50;;;;;;;0.00;0.00;;;22.20;67.90;;;;;;4186104;28;20118;-69
2022/05/20 06:33:12;;;;;;;0.00;0.00;;;22.40;69.40;;;;;;4186688;28;20501;-69
2022/05/20 06:41:01;;;;;;;0.00;0.00;;;22.80;70.20;;;;;;4185964;28;20123;-66
2022/05/20 06:43:26;;;;;;;0.00;0.00;;;22.80;70.50;;;;;;4186019;28;20427;-68
2022/05/20 06:45:52;;;;;;;0.00;0.00;;;22.70;70.30;;;;;;4187327;28;20072;-68
2022/05/20 06:48:41;;;;;;;0.00;0.00;;;22.60;71.10;;;;;;4199935;28;20071;-66
2022/05/20 06:51:05;;;;;;;0.00;0.00;;;22.50;71.30;;;;;;4172452;28;20215;-67
2022/05/20 06:53:27;;;;;;;0.00;0.00;;;22.40;71.60;;;;;;4202562;28;20058;-69
2022/05/20 06:55:51;;;;;;;0.00;0.00;;;22.50;71.60;;;;;;4188429;28;20088;-67
2022/05/20 06:58:13;;;;;;;0.00;0.00;;;22.50;71.90;;;;;;4231184;28;20056;-67
2022/05/20 07:00:38;;;;;;;0.00;0.00;;;22.50;72.40;;;;;;4231683;28;20112;-66
2022/05/20 07:03:02;;;;;;;0.00;0.00;;;22.60;73.90;;;;;;4203563;28;20550;-67
2022/05/20 07:05:28;;;;;;;0.00;0.00;;;22.90;73.40;;;;;;4217701;28;20154;-68
2022/05/20 07:07:57;;;;;;;0.00;0.00;;;22.90;74.00;;;;;;4217349;28;20044;-69
2022/05/20 07:10:20;;;;;;;0.00;0.00;;;22.80;74.50;;;;;;4217021;28;20036;-69
2022/05/20 07:12:45;;;;;;;0.00;0.00;;;22.80;74.50;;;;;;4217269;28;20059;-68
2022/05/20 07:15:10;;;;;;;0.00;0.00;;;23.00;74.80;;;;;;4217369;28;20052;-68
2022/05/20 07:17:32;;;;;;;0.00;0.00;;;23.10;74.10;;;;;;4217323;28;20098;-68
2022/05/20 07:19:55;;;;;;;0.00;0.00;;;23.20;74.80;;;;;;4202973;28;20159;-69
2022/05/20 07:22:17;;;;;;;0.00;0.00;;;23.40;73.10;;;;;;4231334;28;20362;-69
2022/05/20 07:24:43;;;;;;;0.00;0.00;;;23.40;71.90;;;;;;4190281;28;20048;-68
2022/05/20 07:27:05;;;;;;;0.00;0.00;;;23.50;71.90;;;;;;4186286;28;20079;-69
2022/05/20 07:29:32;;;;;;;0.00;0.00;;;23.70;71.70;;;;;;4186168;28;20071;-69
2022/05/20 07:31:54;;;;;;;0.00;0.00;;;23.80;71.70;;;;;;4200383;28;20052;-69
2022/05/20 07:34:16;;;;;;;0.00;0.00;;;23.90;70.90;;;;;;4199685;28;20044;-68
2022/05/20 07:36:38;;;;;;;0.00;0.00;;;23.90;69.90;;;;;;4199454;28;20080;-68
2022/05/20 07:39:02;;;;;;;0.00;0.00;;;23.90;70.20;;;;;;4186029;28;20057;-69
2022/05/20 07:41:24;;;;;;;0.00;0.00;;;23.90;69.50;;;;;;4200170;28;20055;-68
2022/05/20 07:43:49;;;;;;;0.00;0.00;;;23.90;69.90;;;;;;4200064;28;20052;-69
2022/05/20 07:46:14;;;;;;;0.00;0.00;;;23.90;69.80;;;;;;4200196;28;20492;-69
2022/05/20 07:48:38;;;;;;;0.00;0.00;;;23.90;68.70;;;;;;4200188;28;20059;-71
2022/05/20 07:51:14;;;;;;;0.00;0.00;;;23.70;68.90;;;;;;4193851;28;20659;-69
2022/05/20 07:53:40;;;;;;;0.00;0.00;;;23.60;69.50;;;;;;4215936;28;20048;-69
2022/05/20 07:56:15;;;;;;;0.00;0.00;;;23.70;67.90;;;;;;4189328;28;20041;-69
2022/05/20 07:58:44;;;;;;;0.00;0.00;;;23.70;67.10;;;;;;4203394;28;20084;-69
2022/05/20 08:01:12;;;;;;;0.00;0.00;;;23.90;66.50;;;;;;4217288;28;20044;-71
2022/05/20 08:06:22;;;;;;;0.00;0.00;;;24.00;65.90;;;;;;4231261;28;20059;-69
2022/05/20 08:08:47;;;;;;;0.00;0.00;;;24.10;65.20;;;;;;4202970;28;20056;-69
2022/05/20 08:11:16;;;;;;;0.00;0.00;;;24.30;64.30;;;;;;4203667;28;20085;-69
2022/05/20 08:13:40;;;;;;;0.00;0.00;;;24.50;63.20;;;;;;4189033;28;20037;-68
2022/05/20 08:16:03;;;;;;;0.00;0.00;;;24.60;63.60;;;;;;4203085;28;20052;-70
2022/05/20 08:18:27;;;;;;;0.00;0.00;;;24.80;63.80;;;;;;4231524;27;20381;-69
2022/05/20 08:20:55;;;;;;;0.00;0.00;;;24.70;64.40;;;;;;4202938;28;20044;-68
2022/05/20 08:23:19;;;;;;;0.00;0.00;;;24.50;63.10;;;;;;4189120;28;20048;-69
2022/05/20 08:25:44;;;;;;;0.00;0.00;;;24.40;63.40;;;;;;4203366;28;20074;-68
2022/05/20 08:28:06;;;;;;;0.00;0.00;;;24.40;63.00;;;;;;4203209;28;20394;-69
2022/05/20 08:30:28;;;;;;;0.00;0.00;;;24.50;62.50;;;;;;4217312;28;20078;-70
2022/05/20 08:32:53;;;;;;;0.00;0.00;;;24.60;62.90;;;;;;4217070;28;20044;-67
2022/05/20 08:35:15;;;;;;;0.00;0.00;;;24.80;62.60;;;;;;4216971;28;20087;-67
2022/05/20 08:37:43;;;;;;;0.00;0.00;;;24.90;62.60;;;;;;4203042;28;20702;-71
2022/05/20 08:40:10;;;;;;;0.00;0.00;;;25.10;62.60;;;;;;4231229;28;20408;-68
2022/05/20 08:42:34;;;;;;;0.00;0.00;;;25.10;61.50;;;;;;4216718;28;20043;-69
2022/05/20 08:45:01;;;;;;;0.00;0.00;;;25.10;60.90;;;;;;4203286;28;20477;-66
2022/05/20 08:47:40;;;;;;;0.00;0.00;;;25.00;60.80;;;;;;4202786;28;20101;-71
2022/05/20 08:50:12;;;;;;;0.00;0.00;;;24.90;61.90;;;;;;4218860;28;20051;-67
2022/05/20 08:52:39;;;;;;;0.00;0.00;;;25.00;61.60;;;;;;4247660;27;20131;-69
2022/05/20 08:55:01;;;;;;;0.00;0.00;;;25.10;61.50;;;;;;4205138;28;20078;-68
2022/05/20 08:57:39;;;;;;;0.00;0.00;;;25.10;61.20;;;;;;4219120;28;20356;-69
2022/05/20 09:00:10;;;;;;;0.00;0.00;;;25.20;61.50;;;;;;4219333;28;20070;-71
2022/05/20 09:02:35;;;;;;;0.00;0.00;;;25.50;61.20;;;;;;4233538;28;20055;-69
2022/05/20 09:04:57;;;;;;;0.00;0.00;;;25.60;60.40;;;;;;4217802;28;20083;-68
2022/05/20 09:07:22;;;;;;;0.00;0.00;;;25.60;60.40;;;;;;4205521;28;20074;-70
2022/05/20 09:09:44;;;;;;;0.00;0.00;;;25.70;59.50;;;;;;4219165;28;20044;-69
2022/05/20 09:12:10;;;;;;;0.00;0.00;;;25.60;59.30;;;;;;4218863;28;20074;-68
2022/05/20 09:17:22;;;;;;;0.00;0.00;;;25.50;58.60;;;;;;4218727;28;20109;-69
2022/05/20 09:20:05;;;;;;;0.00;0.00;;;25.50;58.50;;;;;;4204817;28;20044;-68
2022/05/20 09:22:37;;;;;;;0.00;0.00;;;25.60;58.90;;;;;;4219046;28;20040;-71
2022/05/20 09:24:59;;;;;;;0.00;0.00;;;25.50;58.60;;;;;;4218835;28;20055;-71
2022/05/20 09:27:36;;;;;;;0.00;0.00;;;25.70;58.40;;;;;;4247332;27;20051;-70
2022/05/20 09:30:10;;;;;;;0.00;0.00;;;25.80;58.00;;;;;;4204985;28;20054;-68
2022/05/20 09:32:38;;;;;;;0.00;0.00;;;26.00;58.20;;;;;;4218462;28;20089;-70
2022/05/20 09:35:19;;;;;;;0.00;0.00;;;26.20;57.30;;;;;;4119557;28;20085;-68
2022/05/20 09:37:49;;;;;;;0.00;0.00;;;26.20;56.90;;;;;;4119952;28;20477;-69
2022/05/20 09:40:31;;;;;;;0.00;0.00;;;26.30;56.50;;;;;;4119404;28;20449;-70
2022/05/20 09:43:27;;;;;;;0.00;0.00;;;26.40;56.90;;;;;;4133680;28;20058;-69
2022/05/20 09:45:50;;;;;;;;;;;26.50;56.00;;;;;;4133927;28;20046;-70
2022/05/20 09:48:25;;;;;;;0.00;0.00;;;26.40;56.10;;;;;;4160654;28;20012;-68
2022/05/20 09:51:19;;;;;;;0.00;0.00;;;26.40;56.10;;;;;;4160518;28;20061;-69
2022/05/20 09:53:44;;;;;;;0.00;0.00;;;26.50;56.20;;;;;;4148759;28;20053;-68
2022/05/20 09:56:12;;;;;;;0.00;0.00;;;26.60;55.70;;;;;;4133447;28;20050;-68
2022/05/20 09:58:34;;;;;;;0.00;0.00;;;26.60;56.90;;;;;;4132121;28;20066;-70
2022/05/20 10:01:10;;;;;;;0.00;0.00;;;26.70;56.40;;;;;;4133305;28;20112;-70
2022/05/20 10:03:46;;;;;;;0.00;0.00;;;26.90;55.60;;;;;;4103749;28;20401;-70
2022/05/20 10:06:33;;;;;;;0.00;0.00;;;27.10;55.90;;;;;;4102922;28;20047;-70
2022/05/20 10:08:55;;;;;;;0.00;0.00;;;27.30;56.00;;;;;;4102793;28;20110;-69
2022/05/20 10:11:21;;;;;;;0.00;0.00;;;27.20;55.10;;;;;;4130403;28;20483;-71
2022/05/20 10:14:02;;;;;;;0.00;0.00;;;27.30;55.50;;;;;;4117151;28;20085;-70
2022/05/20 10:16:49;;;;;;;0.00;0.00;;;27.50;54.80;;;;;;4116745;28;20057;-71
2022/05/20 10:19:16;;;;;;;0.00;0.00;;;27.50;54.70;;;;;;4116785;28;20047;-70
2022/05/20 10:21:50;;;;;;;0.00;0.00;;;27.50;55.20;;;;;;4130410;28;20141;-69
2022/05/20 10:24:15;;;;;;;0.00;0.00;;;27.50;55.70;;;;;;4116902;28;20096;-70
2022/05/20 10:26:53;;;;;;;0.00;0.00;;;27.50;55.80;;;;;;4130589;28;20576;-71
2022/05/20 10:32:41;;;;;;;0.00;0.00;;;27.80;56.30;;;;;;4144011;28;20099;-71
2022/05/20 10:35:08;;;;;;;0.00;0.00;;;28.00;55.80;;;;;;4130062;28;20054;-69
2022/05/20 10:38:04;;;;;;;0.00;0.00;;;28.10;55.90;;;;;;4103359;28;20466;-68
2022/05/20 10:40:33;;;;;;;0.00;0.00;;;28.30;55.70;;;;;;4103433;28;20490;-70
2022/05/20 10:43:01;;;;;;;0.00;0.00;;;28.20;55.60;;;;;;4103385;28;20377;-67
2022/05/20 10:48:44;;;;;;;0.00;0.00;;;28.30;53.50;;;;;;4144071;28;20058;-68
2022/05/20 10:51:33;;;;;;;0.00;0.00;;;28.30;53.40;;;;;;4116512;28;20050;-70
2022/05/20 10:53:55;;;;;;;0.00;0.00;;;28.50;53.40;;;;;;4116679;28;20061;-70
2022/05/20 10:56:44;;;;;;;0.00;0.00;;;28.60;52.60;;;;;;4116725;28;20051;-70
2022/05/20 10:59:21;;;;;;;0.00;0.00;;;28.60;52.10;;;;;;4103451;28;20436;-68
2022/05/20 11:01:52;;;;;;;0.00;0.00;;;28.60;51.40;;;;;;4116526;28;20115;-68
2022/05/20 11:04:20;;;;;;;0.00;0.00;;;28.70;51.50;;;;;;4116361;28;20058;-69
2022/05/20 11:06:51;;;;;;;0.00;0.00;;;28.80;50.80;;;;;;4116329;28;20155;-68
2022/05/20 11:09:27;;;;;;;0.00;0.00;;;28.80;51.60;;;;;;4129527;28;20053;-69
2022/05/20 11:11:59;;;;;;;0.00;0.00;;;28.90;49.70;;;;;;4116575;28;20054;-71
2022/05/20 11:14:32;;;;;;;0.00;0.00;;;28.90;50.40;;;;;;4102940;28;20067;-68
2022/05/20 11:17:09;;;;;;;0.00;0.00;;;28.90;50.00;;;;;;4129836;28;20202;-69
2022/05/20 11:19:46;;;;;;;0.00;0.00;;;29.00;49.60;;;;;;4116372;28;20465;-70
2022/05/20 11:22:23;;;;;;;0.00;0.00;;;29.00;49.50;;;;;;4116354;28;20658;-69
2022/05/20 11:24:53;;;;;;;0.00;0.00;;;29.00;49.60;;;;;;4116270;28;20051;-70
2022/05/20 11:27:34;;;;;;;0.00;0.00;;;29.00;49.70;;;;;;4115492;28;20051;-70
2022/05/20 11:30:13;;;;;;;0.00;0.00;;;29.10;49.90;;;;;;4116329;28;20057;-69
2022/05/20 11:32:47;;;;;;;0.00;0.00;;;29.10;50.20;;;;;;4129698;28;20062;-70
2022/05/20 11:35:25;;;;;;;0.00;0.00;;;29.20;50.40;;;;;;4116197;28;20452;-69
2022/05/20 11:38:02;;;;;;;0.00;0.00;;;29.30;50.50;;;;;;4102663;28;20065;-70
2022/05/20 11:40:30;;;;;;;0.00;0.00;;;29.30;50.60;;;;;;4102722;28;20710;-72
2022/05/20 11:43:02;;;;;;;0.00;0.00;;;29.40;50.90;;;;;;4116298;28;20420;-70
2022/05/20 11:45:46;;;;;;;0.00;0.00;;;29.40;50.80;;;;;;4089489;28;20166;-70
2022/05/20 11:48:42;;;;;;;0.00;0.00;;;29.50;50.70;;;;;;4129956;28;20050;-68
2022/05/20 11:51:11;;;;;;;0.00;0.00;;;29.40;49.60;;;;;;4089347;28;20056;-69
2022/05/20 11:54:22;;;;;;;0.00;0.00;;;29.30;50.20;;;;;;4129481;28;20058;-71
2022/05/20 11:56:44;;;;;;;;;;;29.30;49.40;;;;;;4119479;28;20161;-68
2022/05/20 11:59:17;;;;;;;0.00;0.00;;;29.10;49.80;;;;;;4089245;28;20265;-68
2022/05/20 12:01:40;;;;;;;0.00;0.00;;;29.00;49.00;;;;;;4129648;28;20377;-67
2022/05/20 12:04:11;;;;;;;0.00;0.00;;;29.00;49.30;;;;;;4115405;28;20524;-68
2022/05/20 12:06:43;;;;;;;0.00;0.00;;;28.90;48.50;;;;;;4128339;28;20046;-69
2022/05/20 12:09:33;;;;;;;0.00;0.00;;;28.90;49.80;;;;;;4115750;28;20055;-66
2022/05/20 12:12:15;;;;;;;0.00;0.00;;;29.00;50.80;;;;;;4115704;28;20057;-69
2022/05/20 12:14:58;;;;;;;0.00;0.00;;;29.20;50.70;;;;;;4115914;28;20042;-68
2022/05/20 12:17:41;;;;;;;0.00;0.00;;;29.30;49.40;;;;;;4115797;28;20109;-67
2022/05/20 12:25:42;;;;;;;0.00;0.00;;;29.40;50.70;;;;;;4129234;28;20047;-67
2022/05/20 12:28:25;;;;;;;0.00;0.00;;;29.50;49.80;;;;;;4115531;28;20128;-67
2022/05/20 12:31:20;;;;;;;0.00;0.00;;;29.40;49.20;;;;;;4129070;28;20098;-70
2022/05/20 12:34:05;;;;;;;0.00;0.00;;;29.50;49.10;;;;;;4129102;28;20050;-68
2022/05/20 12:36:32;;;;;;;0.00;0.00;;;29.50;47.40;;;;;;4129484;28;20046;-68
2022/05/20 12:39:12;;;;;;;0.00;0.00;;;29.50;47.70;;;;;;4129811;28;20069;-66
2022/05/20 12:41:52;;;;;;;0.00;0.00;;;29.60;48.20;;;;;;4118300;28;20150;-69
2022/05/20 12:44:17;;;;;;;0.00;0.00;;;29.50;49.10;;;;;;4131662;28;20078;-70
2022/05/20 12:46:58;;;;;;;0.00;0.00;;;29.50;49.20;;;;;;4118233;28;20661;-68
2022/05/20 12:49:21;;;;;;;0.00;0.00;;;29.50;49.60;;;;;;4131779;28;20050;-67
2022/05/20 12:51:54;;;;;;;0.00;0.00;;;29.60;49.50;;;;;;4120366;28;20142;-68
2022/05/20 12:54:23;;;;;;;0.00;0.00;;;29.60;48.70;;;;;;4120681;28;20059;-67
2022/05/20 12:56:46;;;;;;;0.00;0.00;;;29.50;49.10;;;;;;4120985;28;20053;-68
2022/05/20 12:59:13;;;;;;;0.00;0.00;;;29.60;49.10;;;;;;4134373;28;20511;-69
2022/05/20 13:01:35;;;;;;;0.00;0.00;;;29.70;48.20;;;;;;4120544;28;20129;-69
2022/05/20 13:03:59;;;;;;;0.00;0.00;;;29.80;48.10;;;;;;4107583;28;20140;-68
2022/05/20 13:06:25;;;;;;;0.00;0.00;;;29.70;47.70;;;;;;4120509;28;20088;-67
2022/05/20 13:08:51;;;;;;;0.00;0.00;;;29.70;47.80;;;;;;4161471;28;20045;-69
2022/05/20 13:11:15;;;;;;;0.00;0.00;;;29.80;47.70;;;;;;4120339;28;20055;-66
2022/05/20 13:13:38;;;;;;;0.00;0.00;;;29.80;46.70;;;;;;4134066;28;20054;-69
2022/05/20 13:16:03;;;;;;;0.00;0.00;;;29.90;46.00;;;;;;4107008;28;20069;-67
2022/05/20 13:18:30;;;;;;;0.00;0.00;;;30.00;45.60;;;;;;4120611;28;20054;-69
2022/05/20 13:21:00;;;;;;;0.00;0.00;;;30.10;45.10;;;;;;4134142;28;20458;-66
2022/05/20 13:23:33;;;;;;;;;;;30.20;45.70;;;;;;4120785;28;20061;-72
2022/05/20 13:25:55;;;;;;;0.00;0.00;;;30.10;45.50;;;;;;4133679;28;19921;-68
2022/05/20 13:28:35;;;;;;;0.00;0.00;;;30.20;45.20;;;;;;4133636;28;20050;-69
2022/05/20 13:31:05;;;;;;;0.00;0.00;;;30.20;45.10;;;;;;4119958;28;20062;-67